Time;durP1;ratioP1;P1;durP2;ratioP2;P2;SDS_P1;SDS_P2;PMS_P1;PMS_P2;Temp;Humidity;BMP_temperature;BMP_pressure;BME280_temperature;BME280_humidity;BME280_pressure;Samples;Min_cycle;Max_cycle;Signal;HPM_P1;HPM_P2
2022/03/27 00:00:58;;;;;;;6.82;2.17;;;;;;;;;;4953758;29;20134;-89
2022/03/27 00:03:37;;;;;;;5.97;2.50;;;;;;;;;;4959686;28;20043;-88
2022/03/27 00:06:04;;;;;;;6.75;2.00;;;;;;;;;;4955015;28;20035;-88
2022/03/27 00:08:37;;;;;;;8.30;2.33;;;;;;;;;;4954130;28;20041;-87
2022/03/27 00:16:55;;;;;;;6.75;2.20;;;;;;;;;;4962182;28;20046;-89
2022/03/27 00:19:21;;;;;;;8.63;1.85;;;;;;;;;;4953714;28;20102;-90
2022/03/27 00:22:06;;;;;;;6.05;1.80;;;;;;;;;;4962714;28;20035;-89
2022/03/27 00:24:32;;;;;;;5.10;2.17;;;;;;;;;;4953452;29;20039;-89
2022/03/27 00:27:36;;;;;;;6.63;1.65;;;;;;;;;;4967214;28;20066;-89
2022/03/27 00:30:02;;;;;;;8.10;1.60;;;;;;;;;;4885998;29;20045;-91
2022/03/27 00:32:53;;;;;;;5.35;1.30;;;;;;;;;;4880348;29;20037;-91
2022/03/27 00:35:20;;;;;;;3.83;1.13;;;;;;;;;;4861076;29;20544;-90
2022/03/27 00:37:46;;;;;;;5.60;1.90;;;;;;;;;;4879161;29;20485;-89
2022/03/27 00:40:14;;;;;;;3.95;0.98;;;;;;;;;;4883616;29;20089;-89
2022/03/27 00:42:55;;;;;;;4.57;1.33;;;;;;;;;;4862467;29;20556;-89
2022/03/27 00:45:21;;;;;;;5.70;1.38;;;;;;;;;;4924671;29;20082;-88
2022/03/27 00:48:06;;;;;;;10.60;1.40;;;;;;;;;;4958979;28;20031;-90
2022/03/27 00:50:33;;;;;;;4.18;1.20;;;;;;;;;;4956121;28;20098;-90
2022/03/27 00:53:11;;;;;;;4.95;1.40;;;;;;;;;;4954237;28;20035;-90
2022/03/27 00:55:38;;;;;;;5.00;1.63;;;;;;;;;;4971158;28;20043;-90
2022/03/27 00:58:08;;;;;;;5.30;2.30;;;;;;;;;;4959216;28;21917;-90
2022/03/27 01:00:43;;;;;;;6.07;1.52;;;;;;;;;;4950355;28;20114;-89
2022/03/27 01:03:13;;;;;;;2.92;1.02;;;;;;;;;;4962573;28;20031;-90
2022/03/27 01:05:40;;;;;;;3.53;1.27;;;;;;;;;;4969249;28;20053;-90
2022/03/27 01:08:09;;;;;;;4.45;1.25;;;;;;;;;;4959682;28;20118;-88
2022/03/27 01:10:36;;;;;;;5.80;1.75;;;;;;;;;;4973049;28;20035;-89
2022/03/27 01:13:08;;;;;;;6.47;1.73;;;;;;;;;;4972693;28;20450;-89
2022/03/27 01:15:41;;;;;;;3.28;1.67;;;;;;;;;;4951917;28;20031;-89
2022/03/27 01:18:08;;;;;;;4.03;1.48;;;;;;;;;;4957384;28;20050;-90
2022/03/27 01:20:35;;;;;;;3.60;1.73;;;;;;;;;;4971164;28;20039;-88
2022/03/27 01:23:15;;;;;;;6.93;2.17;;;;;;;;;;4970058;28;20464;-89
2022/03/27 01:25:43;;;;;;;6.78;2.22;;;;;;;;;;4968972;28;20125;-90
2022/03/27 01:28:10;;;;;;;6.63;1.80;;;;;;;;;;4955299;28;20051;-88
2022/03/27 01:30:37;;;;;;;6.63;2.03;;;;;;;;;;4961131;28;20114;-88
2022/03/27 01:33:05;;;;;;;5.82;2.22;;;;;;;;;;4957778;28;20043;-88
2022/03/27 01:35:39;;;;;;;4.88;2.53;;;;;;;;;;4956457;28;20031;-89
2022/03/27 01:38:06;;;;;;;5.22;2.30;;;;;;;;;;4960981;28;20034;-89
2022/03/27 01:40:50;;;;;;;4.82;2.10;;;;;;;;;;4955819;28;20039;-89
2022/03/27 01:43:16;;;;;;;6.32;2.83;;;;;;;;;;4940770;28;20502;-90
2022/03/27 01:45:49;;;;;;;6.65;2.30;;;;;;;;;;4259869;28;10000744;-88
2022/03/27 01:48:16;;;;;;;5.22;2.50;;;;;;;;;;4939106;28;20134;-90
2022/03/27 01:51:01;;;;;;;4.53;2.45;;;;;;;;;;4956068;28;20115;-89
2022/03/27 01:53:27;;;;;;;5.93;2.80;;;;;;;;;;4955917;28;20055;-89
2022/03/27 01:55:59;;;;;;;4.20;2.15;;;;;;;;;;4962993;28;20513;-89
2022/03/27 01:58:25;;;;;;;5.82;2.60;;;;;;;;;;4936017;29;20054;-88
2022/03/27 02:01:16;;;;;;;8.18;3.17;;;;;;;;;;4962912;28;20134;-88
2022/03/27 02:03:54;;;;;;;6.72;2.88;;;;;;;;;;4932037;28;20043;-91
2022/03/27 02:06:20;;;;;;;5.43;2.63;;;;;;;;;;4935849;28;20031;-89
2022/03/27 02:08:47;;;;;;;5.45;2.17;;;;;;;;;;4958874;28;20053;-90
2022/03/27 02:11:14;;;;;;;6.20;2.10;;;;;;;;;;4956275;28;20032;-93
2022/03/27 02:13:42;;;;;;;6.05;1.90;;;;;;;;;;4958017;28;20165;-89
2022/03/27 02:16:09;;;;;;;4.32;2.00;;;;;;;;;;4957891;28;20043;-88
2022/03/27 02:18:36;;;;;;;3.38;1.65;;;;;;;;;;4968559;28;20118;-89
2022/03/27 02:21:03;;;;;;;4.53;1.80;;;;;;;;;;4957647;28;20039;-89
2022/03/27 02:23:30;;;;;;;5.15;1.63;;;;;;;;;;4959003;28;20063;-89
2022/03/27 02:25:56;;;;;;;4.35;1.98;;;;;;;;;;4940804;28;20817;-89
2022/03/27 02:28:23;;;;;;;4.53;2.22;;;;;;;;;;4953981;28;20039;-89
2022/03/27 02:31:14;;;;;;;6.00;2.63;;;;;;;;;;4611453;28;10000121;-89
2022/03/27 02:34:04;;;;;;;7.80;4.20;;;;;;;;;;4945751;28;20039;-89
2022/03/27 02:36:31;;;;;;;8.07;3.72;;;;;;;;;;4954401;28;20558;-88
2022/03/27 02:39:00;;;;;;;8.50;4.60;;;;;;;;;;4953572;28;21133;-89
2022/03/27 02:41:26;;;;;;;8.75;4.25;;;;;;;;;;4952156;28;20491;-88
2022/03/27 02:44:09;;;;;;;9.05;4.90;;;;;;;;;;4956998;28;20031;-89
2022/03/27 02:46:35;;;;;;;8.98;4.80;;;;;;;;;;4955824;28;20027;-88
2022/03/27 02:49:21;;;;;;;9.45;4.90;;;;;;;;;;4957424;28;20134;-88
2022/03/27 02:51:47;;;;;;;12.68;5.40;;;;;;;;;;4954926;28;20078;-89
2022/03/27 02:54:26;;;;;;;14.90;5.35;;;;;;;;;;4957940;28;20038;-90
2022/03/27 02:56:53;;;;;;;9.63;5.32;;;;;;;;;;4948437;28;20110;-88
2022/03/27 02:59:21;;;;;;;11.20;5.20;;;;;;;;;;4951635;28;20134;-89
2022/03/27 03:01:48;;;;;;;10.05;4.45;;;;;;;;;;4959887;28;20039;-89
2022/03/27 03:04:17;;;;;;;11.80;3.95;;;;;;;;;;4937386;28;20039;-89
2022/03/27 03:06:44;;;;;;;6.72;3.58;;;;;;;;;;4950002;28;20031;-89
2022/03/27 03:09:12;;;;;;;16.23;6.47;;;;;;;;;;4954527;28;20054;-89
2022/03/27 03:11:39;;;;;;;15.23;7.82;;;;;;;;;;4953021;28;20028;-89
2022/03/27 03:14:28;;;;;;;18.90;9.15;;;;;;;;;;4950553;28;20118;-87
2022/03/27 03:16:55;;;;;;;20.33;9.75;;;;;;;;;;4925223;29;20494;-90
2022/03/27 03:19:24;;;;;;;17.85;9.18;;;;;;;;;;4954154;28;20081;-88
2022/03/27 03:21:51;;;;;;;15.50;8.02;;;;;;;;;;4958269;28;20075;-90
2022/03/27 03:24:17;;;;;;;15.27;8.57;;;;;;;;;;4943230;28;20118;-91
2022/03/27 03:26:50;;;;;;;17.52;7.50;;;;;;;;;;4969392;28;20493;-89
2022/03/27 03:29:16;;;;;;;16.38;7.30;;;;;;;;;;4973714;28;20066;-90
2022/03/27 03:32:07;;;;;;;12.25;6.75;;;;;;;;;;4970365;28;20070;-91
2022/03/27 03:34:39;;;;;;;18.20;7.20;;;;;;;;;;4925329;29;20035;-91
2022/03/27 03:37:06;;;;;;;20.40;9.30;;;;;;;;;;4963968;28;20035;-91
2022/03/27 03:39:36;;;;;;;15.88;6.95;;;;;;;;;;4953949;28;20779;-89
2022/03/27 03:42:03;;;;;;;13.98;6.55;;;;;;;;;;4969519;28;20027;-90
2022/03/27 03:44:53;;;;;;;13.10;6.43;;;;;;;;;;4948822;28;20398;-90
2022/03/27 03:47:19;;;;;;;11.18;5.30;;;;;;;;;;4971037;28;20082;-90
2022/03/27 03:49:50;;;;;;;11.77;5.65;;;;;;;;;;4976013;28;20500;-93
2022/03/27 03:52:16;;;;;;;12.70;5.32;;;;;;;;;;4960845;28;20054;-90
2022/03/27 03:54:44;;;;;;;12.85;5.60;;;;;;;;;;4977744;28;20039;-90
2022/03/27 03:57:10;;;;;;;10.90;5.97;;;;;;;;;;4973611;28;20049;-88
2022/03/27 03:59:46;;;;;;;13.82;6.90;;;;;;;;;;4960730;28;20390;-88
2022/03/27 04:02:15;;;;;;;13.07;7.00;;;;;;;;;;4965984;28;20038;-88
2022/03/27 04:05:01;;;;;;;18.65;7.95;;;;;;;;;;4960256;28;20042;-89
2022/03/27 04:07:27;;;;;;;12.05;7.18;;;;;;;;;;4953788;28;20093;-88
2022/03/27 04:09:54;;;;;;;16.45;8.38;;;;;;;;;;4959521;28;20054;-88
2022/03/27 04:12:28;;;;;;;20.70;10.07;;;;;;;;;;4961772;28;20121;-89
2022/03/27 04:14:55;;;;;;;14.95;9.70;;;;;;;;;;4971004;28;20122;-89
2022/03/27 04:17:21;;;;;;;14.23;8.43;;;;;;;;;;4969898;28;20564;-89
2022/03/27 04:19:47;;;;;;;13.52;8.02;;;;;;;;;;4951046;28;20129;-90
2022/03/27 04:22:13;;;;;;;15.73;8.38;;;;;;;;;;4972753;28;20137;-89
2022/03/27 04:24:39;;;;;;;14.52;8.95;;;;;;;;;;4981552;28;20038;-88
2022/03/27 04:27:07;;;;;;;15.48;8.32;;;;;;;;;;4966359;28;20043;-90
2022/03/27 04:29:55;;;;;;;15.25;8.80;;;;;;;;;;4958838;28;20051;-89
2022/03/27 04:32:21;;;;;;;15.93;8.10;;;;;;;;;;4961211;28;20042;-90
2022/03/27 04:34:55;;;;;;;15.23;7.43;;;;;;;;;;4972604;28;20031;-90
2022/03/27 04:37:21;;;;;;;11.15;6.65;;;;;;;;;;4965530;28;20038;-87
2022/03/27 04:40:06;;;;;;;11.43;7.00;;;;;;;;;;4972004;28;20046;-91
2022/03/27 04:42:36;;;;;;;12.15;6.47;;;;;;;;;;4957031;28;20039;-89
2022/03/27 04:45:03;;;;;;;12.75;6.97;;;;;;;;;;4957084;28;20046;-87
2022/03/27 04:47:38;;;;;;;11.13;6.93;;;;;;;;;;4979654;28;20039;-88
2022/03/27 04:50:05;;;;;;;13.00;7.80;;;;;;;;;;4951916;28;20035;-90
2022/03/27 04:52:41;;;;;;;13.70;7.07;;;;;;;;;;4958586;29;20040;-87
2022/03/27 04:55:08;;;;;;;13.95;7.53;;;;;;;;;;4957702;29;20035;-89
2022/03/27 04:58:02;;;;;;;18.05;9.40;;;;;;;;;;4956897;28;20078;-89
2022/03/27 05:00:28;;;;;;;15.40;8.63;;;;;;;;;;4976898;28;20459;-90
2022/03/27 05:06:41;;;;;;;13.35;7.65;;;;;;;;;;4972887;28;20094;-90
2022/03/27 05:09:07;;;;;;;10.15;6.75;;;;;;;;;;4966718;28;20038;-87
2022/03/27 05:11:34;;;;;;;7.28;4.72;;;;;;;;;;4957344;28;20070;-90
2022/03/27 05:58:07;;;;;;;5.68;1.88;;;;;;;;;;4618811;28;10000484;-91
2022/03/27 06:00:41;;;;;;;1.88;0.98;;;;;;;;;;4968190;28;20041;-92
2022/03/27 06:03:18;;;;;;;4.25;1.75;;;;;;;;;;4956000;28;20031;-91
2022/03/27 06:05:44;;;;;;;5.00;1.38;;;;;;;;;;4970093;28;20112;-91
2022/03/27 06:08:21;;;;;;;4.30;1.00;;;;;;;;;;4980952;28;20414;-90
2022/03/27 06:10:49;;;;;;;4.75;1.30;;;;;;;;;;4973658;28;20079;-91
2022/03/27 06:19:20;;;;;;;4.65;1.17;;;;;;;;;;4955227;28;20501;-89
2022/03/27 06:21:47;;;;;;;18.02;1.70;;;;;;;;;;4971424;28;20039;-91
2022/03/27 06:24:13;;;;;;;6.45;1.23;;;;;;;;;;4964149;28;20035;-92
2022/03/27 06:26:42;;;;;;;9.23;2.08;;;;;;;;;;4956933;29;20802;-90
2022/03/27 06:29:09;;;;;;;8.82;1.55;;;;;;;;;;4957883;28;20034;-92
2022/03/27 06:31:51;;;;;;;3.83;1.95;;;;;;;;;;4969752;28;20034;-91
2022/03/27 06:34:18;;;;;;;3.65;1.52;;;;;;;;;;4614042;28;9999769;-92
2022/03/27 06:36:45;;;;;;;5.57;1.77;;;;;;;;;;4958210;28;21310;-89
2022/03/27 06:39:13;;;;;;;4.82;1.90;;;;;;;;;;4957828;28;20043;-91
2022/03/27 06:41:39;;;;;;;4.50;1.70;;;;;;;;;;4966093;28;20039;-92
2022/03/27 06:47:09;;;;;;;4.90;2.28;;;;;;;;;;4957442;29;20027;-92
2022/03/27 06:55:42;;;;;;;7.88;2.50;;;;;;;;;;4956941;29;20438;-92
2022/03/27 07:04:10;;;;;;;28.92;14.18;;;;;;;;;;4976114;28;20053;-93
2022/03/27 07:06:42;;;;;;;11.52;5.30;;;;;;;;;;4974867;28;20031;-92
2022/03/27 07:09:40;;;;;;;22.40;12.50;;;;;;;;;;4976317;28;20042;-91
2022/03/27 07:12:08;;;;;;;26.50;13.07;;;;;;;;;;4975272;28;20038;-92
2022/03/27 07:17:45;;;;;;;22.25;12.45;;;;;;;;;;4969305;28;20097;-92
2022/03/27 07:20:27;;;;;;;20.73;11.85;;;;;;;;;;4975944;28;20038;-93
2022/03/27 07:25:57;;;;;;;24.45;12.00;;;;;;;;;;4960033;28;20139;-92
2022/03/27 07:28:47;;;;;;;24.83;11.60;;;;;;;;;;4958525;28;20039;-91
2022/03/27 07:31:13;;;;;;;22.25;11.63;;;;;;;;;;4957053;28;20035;-92
2022/03/27 07:33:40;;;;;;;21.50;9.30;;;;;;;;;;4968840;28;20042;-93
2022/03/27 07:36:18;;;;;;;19.30;10.43;;;;;;;;;;4974470;28;20101;-91
2022/03/27 07:38:44;;;;;;;20.95;10.48;;;;;;;;;;4970212;28;20082;-90
2022/03/27 07:41:11;;;;;;;25.23;11.23;;;;;;;;;;4973996;28;20035;-92
2022/03/27 07:43:56;;;;;;;26.48;10.35;;;;;;;;;;4974470;28;20122;-91
2022/03/27 07:46:23;;;;;;;19.52;10.38;;;;;;;;;;4974598;28;20490;-91
2022/03/27 07:48:49;;;;;;;20.45;9.88;;;;;;;;;;4975073;28;20486;-92
2022/03/27 07:51:20;;;;;;;22.85;10.75;;;;;;;;;;4984357;28;20062;-91
2022/03/27 07:53:47;;;;;;;23.17;10.80;;;;;;;;;;4980505;28;20037;-91
2022/03/27 08:17:25;;;;;;;15.15;6.20;;;;;;;;;;4973701;28;20042;-90
2022/03/27 08:19:52;;;;;;;19.77;4.70;;;;;;;;;;4982648;28;20051;-91
2022/03/27 08:22:25;;;;;;;18.77;3.88;;;;;;;;;;4969569;28;20503;-91
2022/03/27 08:24:51;;;;;;;15.05;3.63;;;;;;;;;;4979705;28;20042;-91
2022/03/27 08:27:41;;;;;;;8.50;3.55;;;;;;;;;;4960614;28;20541;-90
2022/03/27 08:30:08;;;;;;;19.95;5.43;;;;;;;;;;4960402;28;20516;-91
2022/03/27 08:32:51;;;;;;;16.42;4.75;;;;;;;;;;4965751;28;20133;-91
2022/03/27 08:35:18;;;;;;;15.30;4.47;;;;;;;;;;4974660;28;20031;-91
2022/03/27 08:41:16;;;;;;;16.02;6.53;;;;;;;;;;4977873;28;20528;-91
2022/03/27 08:43:46;;;;;;;15.02;6.22;;;;;;;;;;4963138;28;20053;-91
2022/03/27 08:46:36;;;;;;;18.05;6.72;;;;;;;;;;4976879;28;20035;-91
2022/03/27 08:49:09;;;;;;;22.65;7.20;;;;;;;;;;4975406;28;20035;-90
2022/03/27 08:51:50;;;;;;;21.92;7.13;;;;;;;;;;4968447;28;20913;-89
2022/03/27 08:54:18;;;;;;;16.98;6.88;;;;;;;;;;4973913;28;20045;-90
2022/03/27 08:57:06;;;;;;;9.07;2.40;;;;;;;;;;4974540;28;20765;-90
2022/03/27 08:59:32;;;;;;;8.07;2.42;;;;;;;;;;4990567;28;20414;-93
2022/03/27 09:02:28;;;;;;;7.50;2.25;;;;;;;;;;4977940;28;20489;-92
2022/03/27 09:04:55;;;;;;;8.02;2.10;;;;;;;;;;4972684;28;20044;-91
2022/03/27 09:07:25;;;;;;;5.38;2.05;;;;;;;;;;4991400;28;20071;-92
2022/03/27 09:09:52;;;;;;;6.75;1.90;;;;;;;;;;4981276;28;20039;-91
2022/03/27 09:12:38;;;;;;;6.05;1.45;;;;;;;;;;4978345;28;20489;-92
2022/03/27 09:15:09;;;;;;;10.63;2.17;;;;;;;;;;4974296;28;20042;-93
2022/03/27 09:17:54;;;;;;;6.25;1.33;;;;;;;;;;4978733;28;20038;-90
2022/03/27 09:20:44;;;;;;;4.65;1.75;;;;;;;;;;4965119;28;20110;-90
2022/03/27 09:23:15;;;;;;;6.70;1.60;;;;;;;;;;4980118;28;20130;-92
2022/03/27 09:28:36;;;;;;;4.35;1.20;;;;;;;;;;4977065;28;20065;-93
2022/03/27 09:31:24;;;;;;;7.45;1.73;;;;;;;;;;4983414;28;20077;-91
2022/03/27 09:33:54;;;;;;;6.75;1.90;;;;;;;;;;4976962;28;20038;-91
2022/03/27 09:36:40;;;;;;;8.13;2.03;;;;;;;;;;4984291;28;20035;-90
2022/03/27 09:39:11;;;;;;;2.92;1.27;;;;;;;;;;4972207;28;20039;-93
2022/03/27 09:41:51;;;;;;;11.50;2.35;;;;;;;;;;4972466;28;20053;-93
2022/03/27 09:44:21;;;;;;;3.95;1.65;;;;;;;;;;4975356;28;20074;-92
2022/03/27 09:46:50;;;;;;;7.60;1.92;;;;;;;;;;4978787;28;20031;-92
2022/03/27 09:49:17;;;;;;;7.60;1.55;;;;;;;;;;4982516;28;20031;-93
2022/03/27 09:54:53;;;;;;;6.20;1.58;;;;;;;;;;4975639;28;20556;-93
2022/03/27 09:57:19;;;;;;;5.32;1.50;;;;;;;;;;4958203;28;20125;-92
2022/03/27 10:00:02;;;;;;;8.68;2.17;;;;;;;;;;4972142;28;20040;-93
2022/03/27 10:02:31;;;;;;;6.72;1.83;;;;;;;;;;4973050;28;20371;-92
2022/03/27 10:05:08;;;;;;;6.75;2.05;;;;;;;;;;4973902;28;20042;-90
2022/03/27 10:07:36;;;;;;;9.73;1.60;;;;;;;;;;4977045;28;20031;-92
2022/03/27 10:10:14;;;;;;;6.75;1.92;;;;;;;;;;4975047;28;20443;-92
2022/03/27 10:12:41;;;;;;;6.38;2.40;;;;;;;;;;4960962;28;20494;-91
2022/03/27 10:15:26;;;;;;;7.30;2.35;;;;;;;;;;4985847;28;20155;-89
2022/03/27 10:17:57;;;;;;;9.63;2.25;;;;;;;;;;4974214;28;20092;-93
2022/03/27 10:20:27;;;;;;;8.70;2.22;;;;;;;;;;4942553;28;20512;-92
2022/03/27 10:23:04;;;;;;;6.68;2.42;;;;;;;;;;4953293;28;20262;-90
2022/03/27 10:25:35;;;;;;;5.75;1.92;;;;;;;;;;4955581;28;20043;-93
2022/03/27 10:28:04;;;;;;;6.80;2.22;;;;;;;;;;4954835;28;20032;-90
2022/03/27 10:30:30;;;;;;;8.00;2.47;;;;;;;;;;4964087;28;20045;-89
2022/03/27 10:32:58;;;;;;;10.02;2.55;;;;;;;;;;4954932;29;20039;-90
2022/03/27 10:35:27;;;;;;;5.13;2.45;;;;;;;;;;4951689;28;20038;-91
2022/03/27 10:38:07;;;;;;;6.10;2.28;;;;;;;;;;4938782;28;20042;-93
2022/03/27 10:40:43;;;;;;;6.68;2.88;;;;;;;;;;4945748;29;20023;-92
2022/03/27 10:43:19;;;;;;;7.53;2.80;;;;;;;;;;4951319;28;20086;-91
2022/03/27 10:46:06;;;;;;;8.57;3.47;;;;;;;;;;4956656;28;20040;-90
2022/03/27 10:48:42;;;;;;;11.32;3.13;;;;;;;;;;4955472;28;20402;-92
2022/03/27 10:51:09;;;;;;;8.90;3.35;;;;;;;;;;4954193;28;20023;-90
2022/03/27 10:54:00;;;;;;;16.58;4.70;;;;;;;;;;4939311;29;20039;-91
2022/03/27 10:56:36;;;;;;;6.22;3.25;;;;;;;;;;4935677;29;20509;-90
2022/03/27 10:59:17;;;;;;;9.68;4.35;;;;;;;;;;4955652;28;20035;-91
2022/03/27 11:01:45;;;;;;;6.75;3.35;;;;;;;;;;4957658;28;20379;-91
2022/03/27 11:04:13;;;;;;;9.82;4.05;;;;;;;;;;4953458;28;20066;-94
2022/03/27 11:06:42;;;;;;;7.28;3.30;;;;;;;;;;4937925;29;20042;-91
2022/03/27 11:09:13;;;;;;;7.35;4.03;;;;;;;;;;4937543;29;20032;-91
2022/03/27 11:11:40;;;;;;;10.02;4.90;;;;;;;;;;4954240;29;20031;-91
2022/03/27 11:14:21;;;;;;;11.30;4.75;;;;;;;;;;4952211;29;20038;-93
2022/03/27 11:17:06;;;;;;;11.32;4.65;;;;;;;;;;4948567;28;20063;-92
2022/03/27 11:19:43;;;;;;;14.95;5.03;;;;;;;;;;4938541;29;20047;-91
2022/03/27 11:25:45;;;;;;;14.38;5.88;;;;;;;;;;4956150;28;20106;-92
2022/03/27 11:28:18;;;;;;;10.05;5.15;;;;;;;;;;4931620;29;20035;-91
2022/03/27 11:30:50;;;;;;;11.55;5.18;;;;;;;;;;4952821;28;20039;-90
2022/03/27 11:33:32;;;;;;;9.27;5.05;;;;;;;;;;4950368;28;20063;-91
2022/03/27 11:36:02;;;;;;;11.30;5.53;;;;;;;;;;4953364;29;20047;-91
2022/03/27 11:38:29;;;;;;;12.07;5.13;;;;;;;;;;4966389;28;20122;-90
2022/03/27 11:40:56;;;;;;;11.43;5.32;;;;;;;;;;4960554;28;20039;-91
2022/03/27 11:43:33;;;;;;;17.35;8.65;;;;;;;;;;4972811;28;20039;-92
2022/03/27 11:45:59;;;;;;;15.68;8.88;;;;;;;;;;4952793;28;20039;-91
2022/03/27 11:48:27;;;;;;;20.35;10.77;;;;;;;;;;4951140;28;20453;-91
2022/03/27 11:50:54;;;;;;;25.60;12.75;;;;;;;;;;4951071;28;20031;-90
2022/03/27 11:53:33;;;;;;;32.30;15.65;;;;;;;;;;4953913;28;20054;-90
2022/03/27 11:56:09;;;;;;;30.33;15.32;;;;;;;;;;4614794;28;10000531;-91
2022/03/27 11:58:36;;;;;;;26.30;13.48;;;;;;;;;;4953060;28;20035;-90
2022/03/27 12:01:09;;;;;;;22.02;12.68;;;;;;;;;;4956877;28;20138;-91
2022/03/27 12:03:56;;;;;;;20.98;10.27;;;;;;;;;;4937123;29;20042;-91
2022/03/27 12:06:26;;;;;;;14.85;8.10;;;;;;;;;;4953763;28;20043;-91
2022/03/27 12:08:55;;;;;;;13.77;7.00;;;;;;;;;;4954544;28;20046;-90
2022/03/27 12:11:23;;;;;;;12.05;6.70;;;;;;;;;;4969522;28;20035;-90
2022/03/27 12:13:50;;;;;;;8.63;4.25;;;;;;;;;;4940134;29;20118;-91
2022/03/27 12:16:37;;;;;;;8.75;3.28;;;;;;;;;;4953803;28;20122;-92
2022/03/27 12:19:13;;;;;;;9.57;3.53;;;;;;;;;;4976577;28;20047;-90
2022/03/27 12:21:46;;;;;;;10.93;3.97;;;;;;;;;;4968415;28;20154;-90
2022/03/27 12:24:14;;;;;;;14.73;7.85;;;;;;;;;;4953254;28;20422;-91
2022/03/27 12:32:38;;;;;;;12.27;6.15;;;;;;;;;;4930334;29;20032;-90
2022/03/27 12:35:06;;;;;;;20.00;9.80;;;;;;;;;;4930276;29;20130;-90
2022/03/27 12:37:50;;;;;;;33.83;15.65;;;;;;;;;;4934872;29;20035;-93
2022/03/27 12:40:17;;;;;;;25.40;11.55;;;;;;;;;;4936463;29;20039;-90
2022/03/27 12:42:47;;;;;;;20.23;11.20;;;;;;;;;;4937631;29;20386;-91
2022/03/27 12:48:47;;;;;;;22.58;10.70;;;;;;;;;;4906963;29;20028;-91
2022/03/27 12:51:13;;;;;;;23.38;12.65;;;;;;;;;;4953993;29;20038;-89
2022/03/27 12:53:42;;;;;;;24.30;13.02;;;;;;;;;;4956983;29;20050;-89
2022/03/27 12:56:11;;;;;;;21.85;11.93;;;;;;;;;;4960320;28;20035;-89
2022/03/27 12:58:49;;;;;;;32.08;16.48;;;;;;;;;;4958864;28;20509;-90
2022/03/27 13:01:20;;;;;;;27.20;14.82;;;;;;;;;;4969119;28;20066;-91
2022/03/27 13:04:11;;;;;;;23.90;12.77;;;;;;;;;;4954867;28;20063;-91
2022/03/27 13:06:39;;;;;;;24.00;12.73;;;;;;;;;;4960704;28;20110;-93
2022/03/27 13:09:09;;;;;;;21.92;12.98;;;;;;;;;;4957611;28;20368;-91
2022/03/27 13:11:45;;;;;;;25.05;15.40;;;;;;;;;;4955725;28;20027;-92
2022/03/27 13:14:16;;;;;;;27.95;16.20;;;;;;;;;;4954635;28;20502;-90
2022/03/27 13:16:47;;;;;;;27.70;15.32;;;;;;;;;;4959400;28;21554;-90
2022/03/27 13:19:18;;;;;;;29.90;14.68;;;;;;;;;;4967338;28;20466;-92
2022/03/27 13:21:53;;;;;;;29.80;17.08;;;;;;;;;;4968066;28;20086;-89
2022/03/27 13:24:27;;;;;;;23.15;13.52;;;;;;;;;;4975581;28;20133;-90
2022/03/27 13:27:02;;;;;;;34.63;18.48;;;;;;;;;;4974556;28;20041;-89
2022/03/27 13:29:29;;;;;;;35.00;18.10;;;;;;;;;;4972704;28;20042;-90
2022/03/27 13:31:56;;;;;;;32.15;15.85;;;;;;;;;;4977752;28;20040;-91
2022/03/27 13:34:22;;;;;;;27.75;13.30;;;;;;;;;;4959578;28;20039;-88
2022/03/27 13:36:50;;;;;;;27.77;12.88;;;;;;;;;;4956119;28;20042;-90
2022/03/27 13:39:17;;;;;;;22.27;11.43;;;;;;;;;;4962312;28;20047;-91
2022/03/27 13:44:47;;;;;;;19.65;10.90;;;;;;;;;;4958756;28;20574;-91
2022/03/27 13:47:18;;;;;;;21.13;10.38;;;;;;;;;;4960110;28;20541;-90
2022/03/27 13:49:45;;;;;;;18.70;9.73;;;;;;;;;;4973436;28;20137;-90
2022/03/27 13:52:13;;;;;;;16.40;8.95;;;;;;;;;;4959020;28;20031;-89
2022/03/27 13:54:39;;;;;;;15.73;9.80;;;;;;;;;;4629985;28;10001437;-91
2022/03/27 13:57:09;;;;;;;13.52;8.02;;;;;;;;;;4974103;28;20078;-93
2022/03/27 13:59:35;;;;;;;11.40;7.15;;;;;;;;;;4960056;28;20490;-91
2022/03/27 14:02:03;;;;;;;11.52;6.32;;;;;;;;;;4974862;28;20039;-90
2022/03/27 14:04:29;;;;;;;12.88;7.28;;;;;;;;;;4974019;28;20047;-89
2022/03/27 14:06:56;;;;;;;14.18;7.32;;;;;;;;;;4969620;28;20046;-88
2022/03/27 14:09:22;;;;;;;17.95;8.30;;;;;;;;;;4956816;28;20496;-90
2022/03/27 14:11:49;;;;;;;14.52;7.25;;;;;;;;;;4952781;28;20085;-92
2022/03/27 14:14:15;;;;;;;13.73;7.10;;;;;;;;;;4992835;28;20082;-90
2022/03/27 14:16:52;;;;;;;16.25;7.70;;;;;;;;;;4972698;28;20722;-90
2022/03/27 14:19:19;;;;;;;15.82;8.35;;;;;;;;;;4971963;28;20049;-88
2022/03/27 14:21:48;;;;;;;20.05;8.52;;;;;;;;;;4974579;28;20054;-90
2022/03/27 14:24:15;;;;;;;13.88;7.43;;;;;;;;;;4967585;28;20038;-89
2022/03/27 14:26:43;;;;;;;15.88;7.28;;;;;;;;;;4970216;28;20071;-90
2022/03/27 14:29:09;;;;;;;26.02;12.00;;;;;;;;;;4980102;28;20034;-91
2022/03/27 14:31:37;;;;;;;31.98;12.68;;;;;;;;;;4976557;28;20386;-90
2022/03/27 14:34:03;;;;;;;32.65;13.18;;;;;;;;;;4980904;28;20085;-91
2022/03/27 14:36:31;;;;;;;46.90;14.95;;;;;;;;;;4956211;28;20134;-92
2022/03/27 14:38:58;;;;;;;34.38;14.63;;;;;;;;;;4975407;28;20137;-90
2022/03/27 14:41:32;;;;;;;54.42;16.00;;;;;;;;;;4973751;28;20038;-91
2022/03/27 14:43:58;;;;;;;49.17;15.43;;;;;;;;;;4978644;28;20045;-91
2022/03/27 14:46:27;;;;;;;46.25;16.50;;;;;;;;;;4973974;28;20117;-91
2022/03/27 14:48:53;;;;;;;44.70;16.42;;;;;;;;;;4976202;28;20039;-92
2022/03/27 14:51:21;;;;;;;43.45;15.63;;;;;;;;;;4966580;28;20030;-92
2022/03/27 14:56:32;;;;;;;39.03;15.35;;;;;;;;;;4976320;28;20089;-93
2022/03/27 15:02:02;;;;;;;64.72;19.73;;;;;;;;;;4976280;28;20127;-93
2022/03/27 15:07:32;;;;;;;55.50;17.17;;;;;;;;;;4980453;28;20079;-94
2022/03/27 15:09:59;;;;;;;48.28;16.65;;;;;;;;;;4961729;28;20405;-93
2022/03/27 15:15:29;;;;;;;56.45;16.20;;;;;;;;;;4976481;28;20101;-92
2022/03/27 15:20:59;;;;;;;64.68;19.10;;;;;;;;;;4976841;28;20081;-92
2022/03/27 15:26:29;;;;;;;68.20;23.83;;;;;;;;;;4976417;28;20034;-94
2022/03/27 15:29:17;;;;;;;51.47;21.38;;;;;;;;;;4958746;28;20039;-93
2022/03/27 15:31:44;;;;;;;69.32;20.40;;;;;;;;;;4958812;28;20034;-94
2022/03/27 15:34:11;;;;;;;54.95;15.98;;;;;;;;;;4976537;28;20389;-94
2022/03/27 15:39:41;;;;;;;62.20;13.13;;;;;;;;;;4976863;28;20049;-93
2022/03/27 15:45:13;;;;;;;53.13;12.82;;;;;;;;;;4977735;28;20098;-92
2022/03/27 15:47:55;;;;;;;58.03;11.68;;;;;;;;;;4959216;28;20041;-92
2022/03/27 15:50:25;;;;;;;68.47;12.38;;;;;;;;;;4972891;28;20381;-95
2022/03/27 15:52:51;;;;;;;64.82;14.35;;;;;;;;;;4976649;28;20046;-93
